Time;durP1;ratioP1;P1;durP2;ratioP2;P2;SDS_P1;SDS_P2;PMS_P1;PMS_P2;Temp;Humidity;BMP_temperature;BMP_pressure;BME280_temperature;BME280_humidity;BME280_pressure;Samples;Min_cycle;Max_cycle;Signal;HPM_P1;HPM_P2
2023/03/08 00:02:18;;;;;;;;;;;;;;;13.33;40.69;97706.06;4513764;31;33885;-83
2023/03/08 00:04:45;;;;;;;;;;;;;;;13.28;40.60;97720.06;4514825;31;34010;-81
2023/03/08 00:07:12;;;;;;;;;;;;;;;13.24;40.68;97715.81;4514782;31;34925;-82
2023/03/08 00:09:40;;;;;;;;;;;;;;;13.36;40.34;97713.78;4514073;31;34651;-84
2023/03/08 00:12:09;;;;;;;;;;;;;;;13.20;40.68;97721.94;4514113;31;34348;-82
2023/03/08 00:14:36;;;;;;;;;;;;;;;13.17;40.70;97728.03;4514569;31;33590;-83
2023/03/08 00:17:03;;;;;;;;;;;;;;;13.26;40.42;97722.69;4508271;31;34367;-82
2023/03/08 00:19:31;;;;;;;;;;;;;;;13.34;40.34;97722.53;4497368;31;34102;-82
2023/03/08 00:21:58;;;;;;;;;;;;;;;13.29;40.40;97724.34;4509702;31;34082;-81
2023/03/08 00:24:25;;;;;;;;;;;;;;;13.28;40.33;97722.66;4513775;31;33209;-82
2023/03/08 00:26:52;;;;;;;;;;;;;;;13.39;39.88;97713.72;4514214;31;33881;-83
2023/03/08 00:29:20;;;;;;;;;;;;;;;13.25;39.91;97720.97;4514436;31;33740;-86
2023/03/08 00:31:47;;;;;;;;;;;;;;;13.17;39.89;97727.19;4513707;31;33736;-83
2023/03/08 00:34:15;;;;;;;;;;;;;;;12.81;40.65;97732.25;4513100;31;34285;-83
2023/03/08 00:36:42;;;;;;;;;;;;;;;12.77;40.94;97725.41;4504282;31;33810;-82
2023/03/08 00:39:10;;;;;;;;;;;;;;;12.89;40.69;97723.41;4498240;31;34078;-82
2023/03/08 00:41:37;;;;;;;;;;;;;;;12.81;40.53;97724.44;4507049;31;34377;-82
2023/03/08 00:44:07;;;;;;;;;;;;;;;12.78;40.02;97729.72;4514111;31;34058;-83
2023/03/08 00:46:35;;;;;;;;;;;;;;;12.40;40.99;97726.06;4514036;31;34797;-83
2023/03/08 00:49:03;;;;;;;;;;;;;;;12.45;41.20;97726.81;4513779;31;34511;-87
2023/03/08 00:51:30;;;;;;;;;;;;;;;12.40;41.37;97726.91;4508025;31;34530;-82
2023/03/08 00:53:58;;;;;;;;;;;;;;;12.30;41.64;97716.69;4510615;31;33726;-84
2023/03/08 00:56:26;;;;;;;;;;;;;;;12.31;42.11;97718.41;4513940;31;34446;-81
2023/03/08 00:58:53;;;;;;;;;;;;;;;12.56;41.68;97719.69;4513854;31;34118;-81
2023/03/08 01:01:21;;;;;;;;;;;;;;;12.57;41.51;97720.53;4513521;31;34870;-81
2023/03/08 01:03:50;;;;;;;;;;;;;;;12.40;41.42;97726.06;4512205;31;33309;-84
2023/03/08 01:06:18;;;;;;;;;;;;;;;12.27;41.83;97728.00;4513842;31;34506;-83
2023/03/08 01:08:45;;;;;;;;;;;;;;;12.06;42.28;97718.84;4514150;31;34508;-81
2023/03/08 01:11:22;;;;;;;;;;;;;;;12.27;41.78;97717.59;4515874;31;35012;-81
2023/03/08 01:13:50;;;;;;;;;;;;;;;12.35;41.37;97720.94;4516295;31;33062;-83
2023/03/08 01:16:18;;;;;;;;;;;;;;;11.98;42.26;97720.72;4515446;31;34406;-83
2023/03/08 01:18:46;;;;;;;;;;;;;;;11.56;43.19;97722.19;4515703;31;35222;-83
2023/03/08 01:21:13;;;;;;;;;;;;;;;12.03;42.33;97721.47;4515562;31;35030;-82
2023/03/08 01:23:41;;;;;;;;;;;;;;;11.79;42.69;97724.44;4515988;31;34133;-84
2023/03/08 01:26:16;;;;;;;;;;;;;;;11.90;42.32;97735.56;4516209;31;33799;-86
2023/03/08 01:28:43;;;;;;;;;;;;;;;11.85;42.55;97739.94;4499236;31;34392;-82
2023/03/08 01:31:18;;;;;;;;;;;;;;;11.94;42.60;97745.00;4516037;31;34521;-83
2023/03/08 01:33:46;;;;;;;;;;;;;;;12.04;42.03;97751.75;4510809;31;33478;-82
2023/03/08 01:36:15;;;;;;;;;;;;;;;12.03;41.79;97757.84;4500191;31;35096;-84
2023/03/08 01:38:43;;;;;;;;;;;;;;;11.52;43.13;97765.50;4499147;31;36894;-85
2023/03/08 01:41:27;;;;;;;;;;;;;;;11.55;43.45;97744.66;4515729;31;34261;-83
2023/03/08 01:43:55;;;;;;;;;;;;;;;11.88;42.79;97750.28;4516237;31;32901;-83
2023/03/08 01:46:26;;;;;;;;;;;;;;;11.14;45.05;97751.28;4515895;31;34751;-85
2023/03/08 01:48:56;;;;;;;;;;;;;;;11.43;44.69;97760.41;4515931;31;34405;-87
2023/03/08 01:51:39;;;;;;;;;;;;;;;10.81;47.68;97785.38;4515437;31;35056;-84
2023/03/08 01:54:17;;;;;;;;;;;;;;;10.66;49.55;97784.63;4515791;31;33109;-83
2023/03/08 01:56:45;;;;;;;;;;;;;;;11.16;47.88;97787.56;4515482;31;34095;-83
2023/03/08 01:59:12;;;;;;;;;;;;;;;11.14;48.51;97782.41;4514225;31;35255;-82
2023/03/08 02:01:39;;;;;;;;;;;;;;;11.03;48.93;97789.44;4514471;31;34727;-85
2023/03/08 02:04:07;;;;;;;;;;;;;;;10.95;50.66;97780.91;4515641;31;34290;-85
2023/03/08 02:06:34;;;;;;;;;;;;;;;11.13;50.65;97791.03;4515238;31;34015;-82
2023/03/08 02:09:03;;;;;;;;;;;;;;;10.81;52.07;97793.13;4515228;31;35083;-81
2023/03/08 02:11:34;;;;;;;;;;;;;;;10.82;52.19;97798.28;4514403;31;34260;-83
2023/03/08 02:14:02;;;;;;;;;;;;;;;10.95;52.13;97797.31;4513907;31;33323;-83
2023/03/08 02:16:30;;;;;;;;;;;;;;;11.17;51.59;97795.34;4515584;31;34172;-83
2023/03/08 02:19:00;;;;;;;;;;;;;;;11.74;50.02;97788.53;4515553;31;35347;-83
2023/03/08 02:21:27;;;;;;;;;;;;;;;12.00;49.20;97778.66;4514395;31;34025;-83
2023/03/08 02:23:55;;;;;;;;;;;;;;;11.77;49.38;97789.34;4515390;31;32867;-83
2023/03/08 02:26:22;;;;;;;;;;;;;;;11.19;50.93;97796.16;4515134;31;34425;-82
2023/03/08 02:28:49;;;;;;;;;;;;;;;10.39;53.10;97792.66;4515162;31;33902;-83
2023/03/08 02:31:20;;;;;;;;;;;;;;;9.94;54.77;97792.13;4514763;31;34192;-83
2023/03/08 02:33:47;;;;;;;;;;;;;;;11.24;51.07;97809.06;4515240;31;33742;-84
2023/03/08 02:36:14;;;;;;;;;;;;;;;11.45;50.35;97792.41;4515169;31;35012;-81
2023/03/08 02:38:42;;;;;;;;;;;;;;;12.14;48.07;97794.06;4515315;31;35138;-81
2023/03/08 02:41:09;;;;;;;;;;;;;;;11.86;48.67;97796.22;4514200;31;34110;-82
2023/03/08 02:43:36;;;;;;;;;;;;;;;12.23;47.72;97798.25;4515195;31;33555;-82
2023/03/08 02:46:04;;;;;;;;;;;;;;;12.29;46.79;97809.41;4515586;31;33620;-82
2023/03/08 02:48:32;;;;;;;;;;;;;;;12.53;46.06;97818.53;4515211;31;33996;-83
2023/03/08 02:50:59;;;;;;;;;;;;;;;12.79;44.38;97817.22;4514912;31;33642;-82
2023/03/08 02:53:26;;;;;;;;;;;;;;;12.80;43.73;97818.94;4515072;31;33891;-83
2023/03/08 02:55:54;;;;;;;;;;;;;;;12.52;44.23;97816.81;4515040;31;34870;-82
2023/03/08 02:58:22;;;;;;;;;;;;;;;12.41;43.86;97808.34;4514033;31;34222;-82
2023/03/08 03:00:49;;;;;;;;;;;;;;;12.13;44.03;97813.97;4506368;31;34383;-82
2023/03/08 03:03:16;;;;;;;;;;;;;;;12.21;43.54;97821.66;4512904;31;34081;-85
2023/03/08 03:05:44;;;;;;;;;;;;;;;12.32;43.41;97829.28;4513334;31;35063;-83
2023/03/08 03:08:13;;;;;;;;;;;;;;;12.35;43.12;97834.41;4514605;31;34000;-82
2023/03/08 03:10:40;;;;;;;;;;;;;;;12.19;43.22;97826.00;4513794;31;34966;-82
2023/03/08 03:13:07;;;;;;;;;;;;;;;12.22;43.25;97832.91;4515310;31;33835;-84
2023/03/08 03:15:38;;;;;;;;;;;;;;;12.44;42.72;97839.50;4514960;31;33957;-82
2023/03/08 03:18:06;;;;;;;;;;;;;;;12.18;43.17;97840.75;4513776;31;35224;-83
2023/03/08 03:20:33;;;;;;;;;;;;;;;12.30;43.07;97841.44;4513947;31;33940;-82
2023/03/08 03:23:00;;;;;;;;;;;;;;;11.98;43.87;97860.09;4513071;31;33055;-82
2023/03/08 03:25:28;;;;;;;;;;;;;;;12.21;43.53;97857.19;4513131;31;34095;-83
2023/03/08 03:27:55;;;;;;;;;;;;;;;12.33;43.28;97863.03;4512397;31;34424;-82
2023/03/08 03:30:23;;;;;;;;;;;;;;;12.18;43.52;97868.47;4512477;31;34942;-84
2023/03/08 03:32:51;;;;;;;;;;;;;;;12.45;43.06;97859.37;4514254;31;34239;-83
2023/03/08 03:35:19;;;;;;;;;;;;;;;12.34;43.39;97861.28;4511188;31;34219;-86
2023/03/08 03:37:46;;;;;;;;;;;;;;;12.02;44.50;97862.62;4513615;31;33956;-83
2023/03/08 03:40:14;;;;;;;;;;;;;;;12.03;44.69;97859.16;4512960;31;35046;-83
2023/03/08 03:42:42;;;;;;;;;;;;;;;12.22;44.35;97848.50;4513990;31;34190;-82
2023/03/08 03:45:10;;;;;;;;;;;;;;;12.49;43.75;97849.81;4513490;31;34276;-83
2023/03/08 03:47:37;;;;;;;;;;;;;;;12.36;43.97;97841.34;4513661;31;33906;-83
2023/03/08 03:50:05;;;;;;;;;;;;;;;12.03;44.85;97838.38;4512437;31;34328;-82
2023/03/08 03:52:35;;;;;;;;;;;;;;;12.25;44.57;97832.88;4513792;31;33446;-84
2023/03/08 03:55:02;;;;;;;;;;;;;;;12.11;44.49;97823.53;4513089;31;34075;-82
2023/03/08 03:57:30;;;;;;;;;;;;;;;10.92;48.32;97830.19;4511561;31;32918;-85
2023/03/08 03:59:57;;;;;;;;;;;;;;;11.56;46.95;97847.62;4513197;31;34990;-83
2023/03/08 04:02:25;;;;;;;;;;;;;;;11.67;46.70;97830.19;4512114;31;33300;-82
2023/03/08 04:04:52;;;;;;;;;;;;;;;12.08;45.42;97836.56;4514008;31;34741;-82
2023/03/08 04:07:20;;;;;;;;;;;;;;;12.27;44.56;97842.34;4512863;31;35245;-82
2023/03/08 04:09:47;;;;;;;;;;;;;;;12.28;44.34;97851.00;4512569;31;34525;-83
2023/03/08 04:12:15;;;;;;;;;;;;;;;12.08;44.10;97856.47;4513997;31;33731;-84
2023/03/08 04:14:42;;;;;;;;;;;;;;;12.30;43.47;97857.88;4512388;31;35070;-84
2023/03/08 04:17:10;;;;;;;;;;;;;;;12.14;43.26;97862.44;4513196;31;33917;-82
2023/03/08 04:19:38;;;;;;;;;;;;;;;12.30;42.60;97860.47;4511142;31;34068;-82
2023/03/08 04:22:05;;;;;;;;;;;;;;;12.30;42.31;97870.03;4513831;31;34133;-83
2023/03/08 04:24:34;;;;;;;;;;;;;;;12.24;41.97;97878.78;4513813;31;33861;-85
2023/03/08 04:27:02;;;;;;;;;;;;;;;12.38;41.72;97886.34;4512740;31;33792;-83
2023/03/08 04:29:31;;;;;;;;;;;;;;;12.18;41.79;97890.09;4512834;31;34797;-82
2023/03/08 04:31:59;;;;;;;;;;;;;;;12.21;41.65;97888.34;4513393;31;33914;-82
2023/03/08 04:34:27;;;;;;;;;;;;;;;12.12;41.60;97899.72;4511534;31;35092;-82
2023/03/08 04:36:54;;;;;;;;;;;;;;;11.58;42.29;97900.38;4513184;31;35353;-83
2023/03/08 04:39:22;;;;;;;;;;;;;;;11.57;42.75;97896.06;4513338;31;34918;-82
2023/03/08 04:41:50;;;;;;;;;;;;;;;11.97;41.75;97892.13;4513471;31;34182;-82
2023/03/08 04:44:17;;;;;;;;;;;;;;;11.75;41.94;97899.31;4513027;31;35185;-84
2023/03/08 04:46:45;;;;;;;;;;;;;;;11.84;41.96;97896.63;4514261;31;33894;-82
2023/03/08 04:49:13;;;;;;;;;;;;;;;11.59;42.61;97894.31;4515210;31;32628;-83
2023/03/08 04:51:41;;;;;;;;;;;;;;;11.47;43.13;97899.63;4514411;31;33365;-83
2023/03/08 04:54:08;;;;;;;;;;;;;;;11.63;42.68;97895.13;4515058;31;34247;-83
2023/03/08 04:56:36;;;;;;;;;;;;;;;11.96;41.97;97880.88;4516017;31;35151;-83
2023/03/08 04:59:03;;;;;;;;;;;;;;;11.77;42.26;97892.38;4505313;31;35135;-81
2023/03/08 05:01:31;;;;;;;;;;;;;;;11.77;42.12;97885.44;4516416;31;33682;-82
2023/03/08 05:03:58;;;;;;;;;;;;;;;11.74;42.06;97892.41;4516099;31;33850;-83
2023/03/08 05:06:27;;;;;;;;;;;;;;;11.81;41.97;97891.44;4516125;31;34406;-84
2023/03/08 05:08:55;;;;;;;;;;;;;;;11.59;42.24;97888.25;4503311;31;34241;-87
2023/03/08 05:11:24;;;;;;;;;;;;;;;11.92;41.70;97876.63;4522562;31;33207;-82
2023/03/08 05:13:52;;;;;;;;;;;;;;;11.86;41.79;97876.72;4513305;31;34111;-82
2023/03/08 05:16:20;;;;;;;;;;;;;;;11.85;41.85;97878.44;4513978;31;35008;-82
2023/03/08 05:18:47;;;;;;;;;;;;;;;12.02;41.61;97882.56;4500575;31;34971;-83
2023/03/08 05:21:16;;;;;;;;;;;;;;;11.70;42.06;97891.56;4517311;31;33009;-82
2023/03/08 05:23:44;;;;;;;;;;;;;;;11.73;41.78;97894.12;4531786;31;34813;-85
2023/03/08 05:26:13;;;;;;;;;;;;;;;11.32;42.70;97889.41;4510270;31;34591;-83
2023/03/08 05:28:40;;;;;;;;;;;;;;;11.57;42.46;97896.06;4504724;31;33833;-83
2023/03/08 05:31:12;;;;;;;;;;;;;;;11.35;42.51;97899.78;4506812;31;34168;-83
2023/03/08 05:33:41;;;;;;;;;;;;;;;11.12;42.87;97911.22;4499695;31;34062;-83
2023/03/08 05:36:09;;;;;;;;;;;;;;;11.29;42.89;97908.50;4511172;31;34262;-84
2023/03/08 05:38:37;;;;;;;;;;;;;;;11.16;42.82;97919.84;4515608;31;34172;-83
2023/03/08 05:41:05;;;;;;;;;;;;;;;11.35;42.64;97930.91;4515700;31;34082;-81
2023/03/08 05:43:33;;;;;;;;;;;;;;;11.33;42.75;97937.88;4513309;31;33806;-85
2023/03/08 05:46:02;;;;;;;;;;;;;;;11.49;42.34;97928.19;4508316;31;34385;-83
2023/03/08 05:48:30;;;;;;;;;;;;;;;11.46;42.45;97934.25;4514310;31;34281;-85
2023/03/08 05:50:57;;;;;;;;;;;;;;;11.52;42.42;97947.19;4513730;31;33763;-86
2023/03/08 05:53:25;;;;;;;;;;;;;;;11.54;42.66;97953.19;4507763;31;34088;-88
2023/03/08 05:55:54;;;;;;;;;;;;;;;11.69;42.55;97947.84;4510954;31;35278;-86
2023/03/08 05:58:22;;;;;;;;;;;;;;;11.85;42.46;97953.72;4514374;31;34935;-83
2023/03/08 06:00:49;;;;;;;;;;;;;;;11.34;43.58;97953.41;4514457;31;34162;-86
2023/03/08 06:03:17;;;;;;;;;;;;;;;11.83;43.01;97960.69;4515589;31;33951;-86
2023/03/08 06:05:44;;;;;;;;;;;;;;;11.98;42.86;97958.81;4514640;31;35360;-83
2023/03/08 06:08:11;;;;;;;;;;;;;;;12.06;42.94;97955.22;4515620;31;34319;-84
2023/03/08 06:10:39;;;;;;;;;;;;;;;11.88;43.71;97968.44;4515225;31;33325;-84
2023/03/08 06:13:06;;;;;;;;;;;;;;;12.10;43.48;97974.22;4515023;31;34160;-83
2023/03/08 06:15:34;;;;;;;;;;;;;;;11.88;44.13;97981.41;4515932;31;34856;-84
2023/03/08 06:18:02;;;;;;;;;;;;;;;11.50;45.51;97985.25;4515591;31;33969;-85
2023/03/08 06:20:29;;;;;;;;;;;;;;;11.66;45.41;97979.00;4515287;31;33297;-84
2023/03/08 06:22:56;;;;;;;;;;;;;;;11.96;45.08;97989.13;4515589;31;35125;-86
2023/03/08 06:25:24;;;;;;;;;;;;;;;12.31;44.53;97988.69;4515431;31;34184;-86
2023/03/08 06:27:52;;;;;;;;;;;;;;;12.44;44.51;97985.03;4515543;31;34224;-85
2023/03/08 06:30:19;;;;;;;;;;;;;;;12.75;43.92;97982.00;4515860;31;33296;-88
2023/03/08 06:32:47;;;;;;;;;;;;;;;12.06;45.67;97993.34;4514595;31;34635;-86
2023/03/08 06:35:14;;;;;;;;;;;;;;;12.44;45.15;97979.84;4514762;31;34838;-84
2023/03/08 06:37:42;;;;;;;;;;;;;;;12.80;44.59;97983.63;4513964;31;34481;-83
2023/03/08 06:40:11;;;;;;;;;;;;;;;12.49;45.46;97996.22;4515405;31;33529;-87
2023/03/08 06:42:39;;;;;;;;;;;;;;;12.34;44.42;97999.03;4515661;31;33973;-86
2023/03/08 06:45:09;;;;;;;;;;;;;;;12.58;43.89;97992.66;4515757;31;34779;-87
2023/03/08 06:47:37;;;;;;;;;;;;;;;13.08;41.84;97991.91;4513985;31;34794;-88
2023/03/08 06:50:04;;;;;;;;;;;;;;;12.84;42.72;97997.47;4514587;31;33358;-88
2023/03/08 06:52:36;;;;;;;;;;;;;;;12.53;43.47;98005.69;4515675;31;34963;-87
2023/03/08 06:55:04;;;;;;;;;;;;;;;12.46;43.88;98014.47;4515351;31;34450;-88
2023/03/08 06:57:31;;;;;;;;;;;;;;;12.85;43.12;98009.59;4515483;31;34891;-83
2023/03/08 06:59:58;;;;;;;;;;;;;;;13.23;42.25;98002.94;4514933;31;34130;-86
2023/03/08 07:02:26;;;;;;;;;;;;;;;12.69;44.43;98014.19;4515204;31;33765;-86
2023/03/08 07:04:53;;;;;;;;;;;;;;;12.90;44.23;98028.59;4515472;31;33829;-85
2023/03/08 07:07:20;;;;;;;;;;;;;;;13.26;43.05;98021.13;4513913;31;34151;-83
2023/03/08 07:09:48;;;;;;;;;;;;;;;13.51;42.80;98017.22;4514604;31;34048;-87
2023/03/08 07:12:15;;;;;;;;;;;;;;;13.66;42.65;98028.25;4515203;31;34068;-90
2023/03/08 07:14:42;;;;;;;;;;;;;;;13.19;44.44;98045.53;4515114;31;34383;-89
2023/03/08 07:17:10;;;;;;;;;;;;;;;13.06;44.68;98037.88;4514899;31;34606;-89
2023/03/08 07:19:37;;;;;;;;;;;;;;;12.83;43.78;98043.41;4514812;31;33134;-88
2023/03/08 07:22:04;;;;;;;;;;;;;;;13.35;42.41;98044.41;4511490;31;32464;-87
2023/03/08 07:24:31;;;;;;;;;;;;;;;13.21;40.30;98046.34;4514021;31;33911;-83
2023/03/08 07:26:59;;;;;;;;;;;;;;;13.10;39.51;98049.94;4514238;31;34455;-87
2023/03/08 07:29:27;;;;;;;;;;;;;;;12.62;40.03;98047.19;4498231;31;33497;-87
2023/03/08 07:31:54;;;;;;;;;;;;;;;13.01;38.66;98044.06;4499150;31;33557;-87
2023/03/08 07:34:21;;;;;;;;;;;;;;;12.99;38.85;98043.19;4499099;31;34953;-87
2023/03/08 07:36:49;;;;;;;;;;;;;;;12.97;39.73;98048.44;4499168;31;33278;-87
2023/03/08 07:39:17;;;;;;;;;;;;;;;12.41;39.22;98057.84;4511605;31;33206;-88
2023/03/08 07:41:44;;;;;;;;;;;;;;;12.70;38.28;98061.84;4514828;31;34321;-87
2023/03/08 07:44:13;;;;;;;;;;;;;;;12.92;38.05;98060.66;4514944;31;35002;-87
2023/03/08 07:46:41;;;;;;;;;;;;;;;13.96;35.59;98071.13;4514808;31;33846;-85
2023/03/08 07:49:10;;;;;;;;;;;;;;;13.52;36.68;98065.81;4514653;31;34275;-86
2023/03/08 07:51:37;;;;;;;;;;;;;;;13.29;37.17;98075.75;4514725;31;34337;-83
2023/03/08 07:54:05;;;;;;;;;;;;;;;13.42;36.49;98077.28;4514033;31;34758;-83
2023/03/08 07:56:32;;;;;;;;;;;;;;;13.15;36.94;98086.34;4514941;31;33523;-83
2023/03/08 07:58:59;;;;;;;;;;;;;;;12.93;36.50;98088.37;4514766;31;33224;-82
2023/03/08 08:01:27;;;;;;;;;;;;;;;13.00;36.21;98103.03;4514884;31;34857;-83
2023/03/08 08:03:54;;;;;;;;;;;;;;;13.14;36.04;98093.28;4514705;31;34472;-85
2023/03/08 08:06:21;;;;;;;;;;;;;;;13.43;35.14;98088.53;4514762;31;34486;-84
2023/03/08 08:08:49;;;;;;;;;;;;;;;11.80;38.47;98093.13;4514628;31;33270;-83
2023/03/08 08:11:16;;;;;;;;;;;;;;;12.90;36.30;98101.44;4514760;31;34129;-87
2023/03/08 08:13:45;;;;;;;;;;;;;;;13.51;35.06;98103.16;4513569;31;34258;-83
2023/03/08 08:16:13;;;;;;;;;;;;;;;14.09;34.03;98093.47;4514549;31;34148;-86
2023/03/08 08:18:42;;;;;;;;;;;;;;;12.93;39.10;98101.41;4514879;31;33283;-87
2023/03/08 08:21:11;;;;;;;;;;;;;;;13.83;38.07;98105.22;4514496;31;34064;-87
2023/03/08 08:23:38;;;;;;;;;;;;;;;13.91;39.33;98118.13;4514381;31;35136;-84
2023/03/08 08:26:07;;;;;;;;;;;;;;;13.82;39.14;98110.44;4514770;31;34186;-83
2023/03/08 08:28:34;;;;;;;;;;;;;;;13.15;39.91;98117.56;4513217;31;33420;-84
2023/03/08 08:31:05;;;;;;;;;;;;;;;13.92;38.57;98111.16;4514423;31;33911;-82
2023/03/08 08:33:33;;;;;;;;;;;;;;;13.83;38.34;98101.78;4514216;31;34418;-86
2023/03/08 08:36:02;;;;;;;;;;;;;;;13.46;39.61;98104.97;4512934;31;34330;-82
2023/03/08 08:38:30;;;;;;;;;;;;;;;13.77;38.97;98107.06;4512855;31;33281;-88
2023/03/08 08:41:01;;;;;;;;;;;;;;;14.15;38.32;98106.41;4514225;31;34068;-87
2023/03/08 08:43:28;;;;;;;;;;;;;;;14.20;38.60;98103.69;4512938;31;34269;-88
2023/03/08 08:45:56;;;;;;;;;;;;;;;13.60;39.66;98100.41;4513028;31;34318;-87
2023/03/08 08:48:24;;;;;;;;;;;;;;;14.09;38.53;98096.97;4512929;31;33331;-85
2023/03/08 08:50:51;;;;;;;;;;;;;;;13.90;39.05;98097.28;4514260;31;35218;-88
2023/03/08 08:53:19;;;;;;;;;;;;;;;13.84;38.90;98093.91;4513996;31;34313;-82
2023/03/08 08:55:46;;;;;;;;;;;;;;;13.73;38.80;98088.03;4514200;31;35011;-87
2023/03/08 08:58:13;;;;;;;;;;;;;;;13.76;39.36;98093.19;4514023;31;33530;-87
2023/03/08 09:00:41;;;;;;;;;;;;;;;14.51;37.66;98091.84;4514010;31;34161;-88
2023/03/08 09:03:08;;;;;;;;;;;;;;;14.41;38.12;98082.44;4514108;31;35425;-88
2023/03/08 09:05:40;;;;;;;;;;;;;;;14.59;37.04;98082.09;4512421;31;34585;-85
2023/03/08 09:08:07;;;;;;;;;;;;;;;14.65;36.79;98078.47;4513964;31;34176;-83
2023/03/08 09:10:36;;;;;;;;;;;;;;;14.80;36.50;98078.16;4513656;31;34856;-83
2023/03/08 09:13:03;;;;;;;;;;;;;;;14.28;36.31;98070.50;4513738;31;35083;-83
2023/03/08 09:15:30;;;;;;;;;;;;;;;14.00;37.84;98076.25;4512364;31;34277;-86
2023/03/08 09:17:58;;;;;;;;;;;;;;;14.31;37.51;98078.28;4512364;31;33444;-87
2023/03/08 09:20:25;;;;;;;;;;;;;;;14.15;37.51;98087.28;4513386;31;34134;-84
2023/03/08 09:22:52;;;;;;;;;;;;;;;13.84;37.28;98093.06;4513708;31;34329;-85
2023/03/08 09:25:22;;;;;;;;;;;;;;;14.23;36.22;98088.84;4513416;31;34541;-84
2023/03/08 09:27:50;;;;;;;;;;;;;;;13.74;37.05;98086.28;4513489;31;33065;-83
2023/03/08 09:30:17;;;;;;;;;;;;;;;14.50;36.12;98086.63;4515314;31;33926;-88
2023/03/08 09:32:44;;;;;;;;;;;;;;;14.25;35.46;98078.41;4515734;31;33880;-88
2023/03/08 09:35:13;;;;;;;;;;;;;;;13.86;36.99;98079.13;4515932;31;34076;-88
2023/03/08 09:37:41;;;;;;;;;;;;;;;14.27;35.84;98069.66;4515801;31;33186;-86
2023/03/08 09:40:12;;;;;;;;;;;;;;;14.34;35.36;98075.63;4515974;31;34106;-86
2023/03/08 09:42:40;;;;;;;;;;;;;;;14.44;35.47;98071.94;4514831;31;34510;-89
2023/03/08 09:45:12;;;;;;;;;;;;;;;12.91;37.16;98079.72;4514720;31;34426;-88
2023/03/08 09:47:49;;;;;;;;;;;;;;;12.81;37.76;98089.41;4514523;31;34184;-87
2023/03/08 09:50:28;;;;;;;;;;;;;;;13.25;38.31;98071.47;4516065;31;34348;-87
2023/03/08 09:53:05;;;;;;;;;;;;;;;12.58;40.30;98075.88;4515505;31;34327;-87
2023/03/08 09:55:33;;;;;;;;;;;;;;;12.89;39.79;98071.09;4515639;31;34275;-82
2023/03/08 09:58:01;;;;;;;;;;;;;;;13.29;38.66;98081.78;4514381;31;33402;-84
2023/03/08 10:00:39;;;;;;;;;;;;;;;13.23;37.82;98073.22;4514549;31;34112;-86
2023/03/08 10:03:22;;;;;;;;;;;;;;;13.13;38.08;98070.72;4514371;31;35196;-83
2023/03/08 10:06:18;;;;;;;;;;;;;;;14.03;36.25;98060.56;4516025;31;35004;-87
2023/03/08 10:08:56;;;;;;;;;;;;;;;13.62;35.65;98064.78;4458470;31;33192;-84
2023/03/08 10:11:28;;;;;;;;;;;;;;;14.20;35.70;98067.19;4514499;31;34796;-85
2023/03/08 10:13:56;;;;;;;;;;;;;;;13.63;35.71;98058.66;4514107;31;35262;-82
2023/03/08 10:16:25;;;;;;;;;;;;;;;13.78;34.95;98057.53;4515622;31;33854;-83
2023/03/08 10:18:58;;;;;;;;;;;;;;;13.26;35.23;98052.34;4514129;31;33271;-86
2023/03/08 10:21:26;;;;;;;;;;;;;;;14.18;33.35;98048.16;4515469;31;33979;-84
2023/03/08 10:24:02;;;;;;;;;;;;;;;13.83;33.71;98042.72;4514290;31;33689;-84
2023/03/08 10:26:30;;;;;;;;;;;;;;;13.84;32.85;98043.56;4515381;31;34009;-82
2023/03/08 10:28:57;;;;;;;;;;;;;;;14.06;32.94;98047.50;4515525;31;33380;-87
2023/03/08 10:31:26;;;;;;;;;;;;;;;14.21;32.58;98051.56;4515607;31;34136;-86
2023/03/08 10:34:23;;;;;;;;;;;;;;;14.28;32.13;98050.53;4515080;31;35136;-84
2023/03/08 10:36:56;;;;;;;;;;;;;;;14.55;30.82;98059.56;4502271;31;34009;-88
2023/03/08 10:39:24;;;;;;;;;;;;;;;14.62;31.94;98065.50;4515633;31;33760;-87
2023/03/08 10:41:52;;;;;;;;;;;;;;;14.55;31.14;98054.38;4514864;31;34108;-87
2023/03/08 10:44:29;;;;;;;;;;;;;;;14.04;32.35;98057.06;4514157;31;34134;-87
2023/03/08 10:46:57;;;;;;;;;;;;;;;15.22;30.53;98057.19;4515184;31;34375;-86
2023/03/08 10:49:24;;;;;;;;;;;;;;;15.36;29.95;98048.19;4513830;31;33482;-85
2023/03/08 10:51:55;;;;;;;;;;;;;;;14.51;30.96;98046.62;4515179;31;34954;-87
2023/03/08 10:54:23;;;;;;;;;;;;;;;14.52;31.47;98041.38;4515343;31;34026;-84
2023/03/08 10:56:52;;;;;;;;;;;;;;;15.10;30.48;98036.59;4514063;31;34896;-88
2023/03/08 10:59:28;;;;;;;;;;;;;;;14.75;30.57;98037.41;4514143;31;32967;-83
2023/03/08 11:01:57;;;;;;;;;;;;;;;14.04;30.85;98035.37;4513806;31;35026;-83
2023/03/08 11:04:26;;;;;;;;;;;;;;;14.44;30.70;98030.22;4515273;31;34226;-83
2023/03/08 11:06:55;;;;;;;;;;;;;;;14.54;30.40;98029.16;4515285;31;33931;-87
2023/03/08 11:09:24;;;;;;;;;;;;;;;13.99;31.40;98032.00;4515452;31;33184;-86
2023/03/08 11:11:51;;;;;;;;;;;;;;;13.96;31.70;98021.63;4515151;31;34950;-88
2023/03/08 11:14:19;;;;;;;;;;;;;;;14.42;31.47;98026.78;4515277;31;35129;-83
2023/03/08 11:17:05;;;;;;;;;;;;;;;14.69;30.56;98011.47;4513945;31;35078;-87
2023/03/08 11:19:36;;;;;;;;;;;;;;;14.97;30.23;98004.72;4515332;31;34159;-83
2023/03/08 11:22:04;;;;;;;;;;;;;;;14.69;30.80;97998.41;4515320;31;34283;-84
2023/03/08 11:24:38;;;;;;;;;;;;;;;14.92;30.25;98001.34;4515048;31;34839;-88
2023/03/08 11:27:05;;;;;;;;;;;;;;;15.71;29.36;97998.53;4515366;31;34428;-87
2023/03/08 11:29:42;;;;;;;;;;;;;;;15.07;29.69;97998.38;4515067;31;33117;-83
2023/03/08 11:32:29;;;;;;;;;;;;;;;14.48;30.58;97997.97;4515111;31;34299;-82
2023/03/08 11:35:17;;;;;;;;;;;;;;;14.56;30.94;98006.53;4514734;31;34502;-87
2023/03/08 11:38:04;;;;;;;;;;;;;;;15.39;29.48;98017.63;4514741;31;35197;-83
2023/03/08 11:40:46;;;;;;;;;;;;;;;14.78;29.87;98009.50;4504288;31;34174;-87
2023/03/08 11:43:17;;;;;;;;;;;;;;;14.91;29.75;98001.41;4513775;31;33805;-83
2023/03/08 11:45:44;;;;;;;;;;;;;;;15.02;30.02;97981.97;4513438;31;35186;-83
2023/03/08 11:48:20;;;;;;;;;;;;;;;15.27;29.62;97978.78;4514970;31;35211;-87
2023/03/08 11:51:00;;;;;;;;;;;;;;;14.93;29.55;97974.37;4513841;31;33775;-89
2023/03/08 11:53:43;;;;;;;;;;;;;;;14.84;29.37;97987.63;4513260;31;33129;-88
2023/03/08 11:56:34;;;;;;;;;;;;;;;15.59;28.62;97977.94;4513627;31;34103;-83
2023/03/08 11:59:08;;;;;;;;;;;;;;;15.77;28.64;97971.41;4506479;31;33894;-85
2023/03/08 12:01:46;;;;;;;;;;;;;;;15.61;28.00;97975.28;4514731;31;33379;-83
2023/03/08 12:04:18;;;;;;;;;;;;;;;14.56;29.29;97972.63;4513443;31;35010;-83
2023/03/08 12:06:45;;;;;;;;;;;;;;;15.32;28.89;97969.06;4513595;31;34473;-87
2023/03/08 12:09:15;;;;;;;;;;;;;;;15.17;29.08;97974.66;4513749;31;34148;-87
2023/03/08 12:11:43;;;;;;;;;;;;;;;15.06;29.75;97970.56;4513263;31;33219;-86
2023/03/08 12:14:20;;;;;;;;;;;;;;;15.46;28.73;97972.19;4514582;31;34434;-88
2023/03/08 12:17:03;;;;;;;;;;;;;;;14.80;29.55;97973.78;4513251;31;34270;-82
2023/03/08 12:19:49;;;;;;;;;;;;;;;15.18;29.50;97965.94;4513527;31;33721;-84
2023/03/08 12:22:19;;;;;;;;;;;;;;;15.78;28.38;97962.66;4514353;31;34170;-88
2023/03/08 12:25:05;;;;;;;;;;;;;;;15.91;28.64;97961.44;4514624;31;33644;-83
2023/03/08 12:27:33;;;;;;;;;;;;;;;16.39;27.89;97949.56;4514798;31;33803;-87
2023/03/08 12:30:00;;;;;;;;;;;;;;;15.88;27.56;97948.44;4514678;31;33983;-88
2023/03/08 12:32:27;;;;;;;;;;;;;;;15.92;27.46;97949.22;4514562;31;33364;-87
2023/03/08 12:35:03;;;;;;;;;;;;;;;15.26;29.20;97953.53;4513105;31;33998;-83
2023/03/08 12:37:31;;;;;;;;;;;;;;;15.96;28.27;97946.47;4512949;31;35267;-88
2023/03/08 12:40:07;;;;;;;;;;;;;;;15.53;28.39;97942.41;4513083;31;34264;-82
2023/03/08 12:42:35;;;;;;;;;;;;;;;15.56;28.22;97928.37;4514385;31;33425;-82
2023/03/08 12:45:18;;;;;;;;;;;;;;;15.51;28.34;97931.12;4513249;31;34230;-87
2023/03/08 12:48:03;;;;;;;;;;;;;;;15.67;28.57;97920.28;4514311;31;35171;-87
2023/03/08 12:50:33;;;;;;;;;;;;;;;15.26;28.97;97919.59;4514163;31;34031;-88
2023/03/08 12:53:01;;;;;;;;;;;;;;;15.41;29.10;97907.91;4513031;31;33092;-83
2023/03/08 12:55:30;;;;;;;;;;;;;;;14.92;29.15;97906.56;4512878;31;33712;-86
2023/03/08 12:57:59;;;;;;;;;;;;;;;14.47;30.31;97896.28;4512469;31;34343;-88
2023/03/08 13:00:29;;;;;;;;;;;;;;;14.82;29.54;97885.91;4513044;31;33424;-87